sensor_id;sensor_type;location;lat;lon;timestamp;P1;durP1;ratioP1;P2;durP2;ratioP2
63012;SDS011;62113;45.624;11.700;2023-01-25T00:02:18;15.45;;;10.18;;
63012;SDS011;62113;45.624;11.700;2023-01-25T00:04:43;16.85;;;10.45;;
63012;SDS011;62113;45.624;11.700;2023-01-25T00:07:09;14.23;;;9.98;;
63012;SDS011;62113;45.624;11.700;2023-01-25T00:09:35;15.70;;;10.63;;
63012;SDS011;62113;45.624;11.700;2023-01-25T00:12:00;13.38;;;10.40;;
63012;SDS011;62113;45.624;11.700;2023-01-25T00:14:26;18.45;;;11.02;;
63012;SDS011;62113;45.624;11.700;2023-01-25T00:16:52;15.00;;;11.05;;
63012;SDS011;62113;45.624;11.700;2023-01-25T00:19:17;15.38;;;11.50;;
63012;SDS011;62113;45.624;11.700;2023-01-25T00:21:43;18.77;;;11.18;;
63012;SDS011;62113;45.624;11.700;2023-01-25T00:24:09;16.10;;;11.32;;
63012;SDS011;62113;45.624;11.700;2023-01-25T00:26:36;16.05;;;11.32;;
63012;SDS011;62113;45.624;11.700;2023-01-25T00:29:03;14.30;;;11.23;;
63012;SDS011;62113;45.624;11.700;2023-01-25T00:31:36;15.13;;;10.77;;
63012;SDS011;62113;45.624;11.700;2023-01-25T00:39:34;17.88;;;10.93;;
63012;SDS011;62113;45.624;11.700;2023-01-25T00:42:00;14.75;;;11.07;;
63012;SDS011;62113;45.624;11.700;2023-01-25T00:44:26;15.23;;;10.68;;
63012;SDS011;62113;45.624;11.700;2023-01-25T00:46:51;16.05;;;10.77;;
63012;SDS011;62113;45.624;11.700;2023-01-25T00:49:24;12.45;;;10.10;;
63012;SDS011;62113;45.624;11.700;2023-01-25T00:54:24;16.38;;;11.68;;
63012;SDS011;62113;45.624;11.700;2023-01-25T00:56:50;14.43;;;10.45;;
63012;SDS011;62113;45.624;11.700;2023-01-25T00:59:20;15.93;;;10.07;;
63012;SDS011;62113;45.624;11.700;2023-01-25T01:01:47;14.25;;;9.98;;
63012;SDS011;62113;45.624;11.700;2023-01-25T01:04:13;14.35;;;10.48;;
63012;SDS011;62113;45.624;11.700;2023-01-25T01:06:39;16.40;;;10.65;;
63012;SDS011;62113;45.624;11.700;2023-01-25T01:09:06;14.82;;;9.88;;
63012;SDS011;62113;45.624;11.700;2023-01-25T01:11:35;13.90;;;9.88;;
63012;SDS011;62113;45.624;11.700;2023-01-25T01:14:00;13.65;;;9.02;;
63012;SDS011;62113;45.624;11.700;2023-01-25T01:16:26;12.75;;;9.63;;
63012;SDS011;62113;45.624;11.700;2023-01-25T01:18:52;12.27;;;8.98;;
63012;SDS011;62113;45.624;11.700;2023-01-25T01:21:17;14.63;;;9.30;;
63012;SDS011;62113;45.624;11.700;2023-01-25T01:23:43;13.43;;;9.50;;
63012;SDS011;62113;45.624;11.700;2023-01-25T01:26:10;13.40;;;8.35;;
63012;SDS011;62113;45.624;11.700;2023-01-25T01:28:38;13.00;;;8.10;;
63012;SDS011;62113;45.624;11.700;2023-01-25T01:31:05;12.55;;;8.35;;
63012;SDS011;62113;45.624;11.700;2023-01-25T01:33:32;12.13;;;8.88;;
63012;SDS011;62113;45.624;11.700;2023-01-25T01:35:58;17.88;;;8.95;;
63012;SDS011;62113;45.624;11.700;2023-01-25T01:38:37;9.40;;;7.40;;
63012;SDS011;62113;45.624;11.700;2023-01-25T01:41:03;10.27;;;8.10;;
63012;SDS011;62113;45.624;11.700;2023-01-25T01:43:29;12.45;;;8.48;;
63012;SDS011;62113;45.624;11.700;2023-01-25T01:45:59;13.68;;;9.07;;
63012;SDS011;62113;45.624;11.700;2023-01-25T01:48:31;11.60;;;8.20;;
63012;SDS011;62113;45.624;11.700;2023-01-25T01:51:14;9.52;;;7.80;;
63012;SDS011;62113;45.624;11.700;2023-01-25T01:53:51;12.27;;;8.43;;
63012;SDS011;62113;45.624;11.700;2023-01-25T01:56:34;13.18;;;8.25;;
63012;SDS011;62113;45.624;11.700;2023-01-25T01:59:03;15.90;;;7.63;;
63012;SDS011;62113;45.624;11.700;2023-01-25T02:01:31;12.38;;;8.02;;
63012;SDS011;62113;45.624;11.700;2023-01-25T02:03:57;10.40;;;7.78;;
63012;SDS011;62113;45.624;11.700;2023-01-25T02:06:25;12.38;;;7.88;;
63012;SDS011;62113;45.624;11.700;2023-01-25T02:08:58;14.13;;;8.15;;
63012;SDS011;62113;45.624;11.700;2023-01-25T02:13:52;11.30;;;7.85;;
63012;SDS011;62113;45.624;11.700;2023-01-25T02:16:19;11.27;;;8.05;;
63012;SDS011;62113;45.624;11.700;2023-01-25T02:18:49;9.80;;;7.28;;
63012;SDS011;62113;45.624;11.700;2023-01-25T02:21:16;10.27;;;7.30;;
63012;SDS011;62113;45.624;11.700;2023-01-25T02:23:44;12.20;;;7.85;;
63012;SDS011;62113;45.624;11.700;2023-01-25T02:26:17;11.48;;;7.60;;
63012;SDS011;62113;45.624;11.700;2023-01-25T02:28:56;13.55;;;7.88;;
63012;SDS011;62113;45.624;11.700;2023-01-25T02:31:26;12.25;;;8.23;;
63012;SDS011;62113;45.624;11.700;2023-01-25T02:33:52;12.57;;;7.53;;
63012;SDS011;62113;45.624;11.700;2023-01-25T02:36:19;13.10;;;7.93;;
63012;SDS011;62113;45.624;11.700;2023-01-25T02:38:53;11.65;;;8.48;;
63012;SDS011;62113;45.624;11.700;2023-01-25T02:44:07;11.52;;;8.25;;
63012;SDS011;62113;45.624;11.700;2023-01-25T02:46:36;13.32;;;8.05;;
63012;SDS011;62113;45.624;11.700;2023-01-25T02:49:03;12.57;;;7.95;;
63012;SDS011;62113;45.624;11.700;2023-01-25T02:51:31;12.57;;;8.32;;
63012;SDS011;62113;45.624;11.700;2023-01-25T02:53:59;10.88;;;8.30;;
63012;SDS011;62113;45.624;11.700;2023-01-25T02:56:25;12.20;;;7.95;;
63012;SDS011;62113;45.624;11.700;2023-01-25T02:58:51;12.70;;;7.57;;
63012;SDS011;62113;45.624;11.700;2023-01-25T03:01:17;11.23;;;8.05;;
63012;SDS011;62113;45.624;11.700;2023-01-25T03:03:43;13.98;;;8.02;;
63012;SDS011;62113;45.624;11.700;2023-01-25T03:06:09;9.90;;;7.25;;
63012;SDS011;62113;45.624;11.700;2023-01-25T03:08:35;10.07;;;7.82;;
63012;SDS011;62113;45.624;11.700;2023-01-25T03:11:01;10.57;;;7.60;;
63012;SDS011;62113;45.624;11.700;2023-01-25T03:13:28;11.70;;;7.35;;
63012;SDS011;62113;45.624;11.700;2023-01-25T03:15:58;8.98;;;7.03;;
63012;SDS011;62113;45.624;11.700;2023-01-25T03:18:25;11.40;;;7.45;;
63012;SDS011;62113;45.624;11.700;2023-01-25T03:20:50;11.25;;;7.22;;
63012;SDS011;62113;45.624;11.700;2023-01-25T03:23:16;10.00;;;7.50;;
63012;SDS011;62113;45.624;11.700;2023-01-25T03:25:42;9.75;;;7.15;;
63012;SDS011;62113;45.624;11.700;2023-01-25T03:28:07;11.65;;;7.70;;
63012;SDS011;62113;45.624;11.700;2023-01-25T03:30:33;10.25;;;7.40;;
63012;SDS011;62113;45.624;11.700;2023-01-25T03:32:58;28.45;;;14.23;;
63012;SDS011;62113;45.624;11.700;2023-01-25T03:35:24;26.02;;;14.30;;
63012;SDS011;62113;45.624;11.700;2023-01-25T03:37:50;20.25;;;10.18;;
63012;SDS011;62113;45.624;11.700;2023-01-25T03:40:15;13.77;;;8.57;;
63012;SDS011;62113;45.624;11.700;2023-01-25T03:42:41;12.35;;;8.82;;
63012;SDS011;62113;45.624;11.700;2023-01-25T03:45:07;11.05;;;7.45;;
63012;SDS011;62113;45.624;11.700;2023-01-25T03:47:33;13.50;;;7.72;;
63012;SDS011;62113;45.624;11.700;2023-01-25T03:49:58;12.10;;;7.78;;
63012;SDS011;62113;45.624;11.700;2023-01-25T03:58:25;8.95;;;6.90;;
63012;SDS011;62113;45.624;11.700;2023-01-25T04:00:53;9.63;;;6.70;;
63012;SDS011;62113;45.624;11.700;2023-01-25T04:03:20;8.60;;;6.57;;
63012;SDS011;62113;45.624;11.700;2023-01-25T04:05:46;16.40;;;6.93;;
63012;SDS011;62113;45.624;11.700;2023-01-25T04:08:12;9.18;;;6.47;;
63012;SDS011;62113;45.624;11.700;2023-01-25T04:10:38;8.95;;;6.88;;
63012;SDS011;62113;45.624;11.700;2023-01-25T04:13:03;10.73;;;6.10;;
63012;SDS011;62113;45.624;11.700;2023-01-25T04:15:29;8.85;;;6.50;;
63012;SDS011;62113;45.624;11.700;2023-01-25T04:17:55;8.27;;;5.85;;
63012;SDS011;62113;45.624;11.700;2023-01-25T04:20:21;9.25;;;6.57;;
63012;SDS011;62113;45.624;11.700;2023-01-25T04:22:46;8.77;;;6.25;;
63012;SDS011;62113;45.624;11.700;2023-01-25T04:25:12;10.15;;;6.75;;
63012;SDS011;62113;45.624;11.700;2023-01-25T04:27:38;8.32;;;5.50;;
63012;SDS011;62113;45.624;11.700;2023-01-25T04:30:03;7.45;;;6.00;;
63012;SDS011;62113;45.624;11.700;2023-01-25T04:32:29;7.70;;;5.57;;
63012;SDS011;62113;45.624;11.700;2023-01-25T04:34:55;10.95;;;6.07;;
63012;SDS011;62113;45.624;11.700;2023-01-25T04:37:21;6.75;;;5.53;;
63012;SDS011;62113;45.624;11.700;2023-01-25T04:39:47;6.30;;;5.70;;
63012;SDS011;62113;45.624;11.700;2023-01-25T04:42:12;9.43;;;5.88;;
63012;SDS011;62113;45.624;11.700;2023-01-25T04:44:38;8.00;;;6.00;;
63012;SDS011;62113;45.624;11.700;2023-01-25T04:47:03;8.43;;;5.95;;
63012;SDS011;62113;45.624;11.700;2023-01-25T04:49:29;7.10;;;6.25;;
63012;SDS011;62113;45.624;11.700;2023-01-25T04:51:55;7.80;;;6.20;;
63012;SDS011;62113;45.624;11.700;2023-01-25T04:54:20;7.95;;;6.07;;
63012;SDS011;62113;45.624;11.700;2023-01-25T04:56:46;8.10;;;5.63;;
63012;SDS011;62113;45.624;11.700;2023-01-25T04:59:11;7.80;;;5.93;;
63012;SDS011;62113;45.624;11.700;2023-01-25T05:01:37;9.38;;;5.45;;
63012;SDS011;62113;45.624;11.700;2023-01-25T05:04:03;7.40;;;5.68;;
63012;SDS011;62113;45.624;11.700;2023-01-25T05:06:28;8.70;;;5.32;;
63012;SDS011;62113;45.624;11.700;2023-01-25T05:08:54;7.40;;;5.15;;
63012;SDS011;62113;45.624;11.700;2023-01-25T05:11:19;7.10;;;5.25;;
63012;SDS011;62113;45.624;11.700;2023-01-25T05:13:45;6.72;;;5.13;;
63012;SDS011;62113;45.624;11.700;2023-01-25T05:16:10;8.30;;;6.00;;
63012;SDS011;62113;45.624;11.700;2023-01-25T05:18:36;6.15;;;5.20;;
63012;SDS011;62113;45.624;11.700;2023-01-25T05:21:02;7.53;;;5.35;;
63012;SDS011;62113;45.624;11.700;2023-01-25T05:23:27;7.47;;;5.10;;
63012;SDS011;62113;45.624;11.700;2023-01-25T05:25:53;6.85;;;5.57;;
63012;SDS011;62113;45.624;11.700;2023-01-25T05:28:37;6.72;;;4.85;;
63012;SDS011;62113;45.624;11.700;2023-01-25T05:31:03;6.15;;;5.35;;
63012;SDS011;62113;45.624;11.700;2023-01-25T05:33:29;9.73;;;5.90;;
63012;SDS011;62113;45.624;11.700;2023-01-25T05:35:54;7.22;;;5.78;;
63012;SDS011;62113;45.624;11.700;2023-01-25T05:38:22;5.75;;;4.90;;
63012;SDS011;62113;45.624;11.700;2023-01-25T05:40:48;7.75;;;6.20;;
63012;SDS011;62113;45.624;11.700;2023-01-25T05:43:14;6.15;;;5.40;;
63012;SDS011;62113;45.624;11.700;2023-01-25T05:45:39;9.77;;;6.25;;
63012;SDS011;62113;45.624;11.700;2023-01-25T05:48:05;8.55;;;5.93;;
63012;SDS011;62113;45.624;11.700;2023-01-25T05:50:31;6.18;;;5.45;;
63012;SDS011;62113;45.624;11.700;2023-01-25T05:52:56;7.85;;;5.68;;
63012;SDS011;62113;45.624;11.700;2023-01-25T05:55:22;7.95;;;5.93;;
63012;SDS011;62113;45.624;11.700;2023-01-25T05:57:47;8.32;;;6.10;;
63012;SDS011;62113;45.624;11.700;2023-01-25T06:00:14;9.68;;;5.25;;
63012;SDS011;62113;45.624;11.700;2023-01-25T06:02:40;6.30;;;5.40;;
63012;SDS011;62113;45.624;11.700;2023-01-25T06:05:06;6.38;;;4.97;;
63012;SDS011;62113;45.624;11.700;2023-01-25T06:07:32;7.32;;;5.72;;
63012;SDS011;62113;45.624;11.700;2023-01-25T06:10:02;7.70;;;5.53;;
63012;SDS011;62113;45.624;11.700;2023-01-25T06:12:28;17.95;;;7.10;;
63012;SDS011;62113;45.624;11.700;2023-01-25T06:14:54;7.90;;;6.03;;
63012;SDS011;62113;45.624;11.700;2023-01-25T06:17:21;7.63;;;5.82;;
63012;SDS011;62113;45.624;11.700;2023-01-25T06:19:46;11.75;;;7.47;;
63012;SDS011;62113;45.624;11.700;2023-01-25T06:22:12;18.05;;;10.80;;
63012;SDS011;62113;45.624;11.700;2023-01-25T06:24:38;16.50;;;8.13;;
63012;SDS011;62113;45.624;11.700;2023-01-25T06:27:03;9.35;;;6.70;;
63012;SDS011;62113;45.624;11.700;2023-01-25T06:29:29;9.60;;;6.38;;
63012;SDS011;62113;45.624;11.700;2023-01-25T06:31:55;11.52;;;7.35;;
63012;SDS011;62113;45.624;11.700;2023-01-25T06:34:20;13.25;;;7.72;;
63012;SDS011;62113;45.624;11.700;2023-01-25T06:36:48;13.00;;;8.50;;
63012;SDS011;62113;45.624;11.700;2023-01-25T06:39:14;11.55;;;8.18;;
63012;SDS011;62113;45.624;11.700;2023-01-25T06:41:39;12.57;;;8.45;;
63012;SDS011;62113;45.624;11.700;2023-01-25T06:44:05;15.07;;;8.77;;
63012;SDS011;62113;45.624;11.700;2023-01-25T06:46:31;11.98;;;7.97;;
63012;SDS011;62113;45.624;11.700;2023-01-25T06:48:57;11.20;;;8.48;;
63012;SDS011;62113;45.624;11.700;2023-01-25T06:51:23;16.13;;;8.15;;
63012;SDS011;62113;45.624;11.700;2023-01-25T06:53:48;17.55;;;8.90;;
63012;SDS011;62113;45.624;11.700;2023-01-25T06:56:15;14.93;;;10.45;;
63012;SDS011;62113;45.624;11.700;2023-01-25T06:58:45;18.13;;;11.00;;
63012;SDS011;62113;45.624;11.700;2023-01-25T07:01:13;16.60;;;10.67;;
63012;SDS011;62113;45.624;11.700;2023-01-25T07:03:40;16.90;;;10.70;;
63012;SDS011;62113;45.624;11.700;2023-01-25T07:06:07;14.67;;;9.60;;
63012;SDS011;62113;45.624;11.700;2023-01-25T07:08:34;15.65;;;9.95;;
63012;SDS011;62113;45.624;11.700;2023-01-25T07:11:02;19.52;;;8.73;;
63012;SDS011;62113;45.624;11.700;2023-01-25T07:13:29;23.98;;;9.75;;
63012;SDS011;62113;45.624;11.700;2023-01-25T07:16:00;16.35;;;9.38;;
63012;SDS011;62113;45.624;11.700;2023-01-25T07:18:28;14.82;;;9.85;;
63012;SDS011;62113;45.624;11.700;2023-01-25T07:23:20;18.03;;;10.47;;
63012;SDS011;62113;45.624;11.700;2023-01-25T07:25:46;19.60;;;11.38;;
63012;SDS011;62113;45.624;11.700;2023-01-25T07:28:15;23.55;;;11.10;;
63012;SDS011;62113;45.624;11.700;2023-01-25T07:30:41;20.85;;;10.48;;
63012;SDS011;62113;45.624;11.700;2023-01-25T07:33:08;14.45;;;10.77;;
63012;SDS011;62113;45.624;11.700;2023-01-25T07:35:34;18.90;;;11.60;;
63012;SDS011;62113;45.624;11.700;2023-01-25T07:38:00;20.25;;;12.02;;
63012;SDS011;62113;45.624;11.700;2023-01-25T07:40:26;15.88;;;10.68;;
63012;SDS011;62113;45.624;11.700;2023-01-25T07:42:51;15.82;;;10.10;;
63012;SDS011;62113;45.624;11.700;2023-01-25T07:45:18;26.52;;;12.00;;
63012;SDS011;62113;45.624;11.700;2023-01-25T07:47:43;16.92;;;11.75;;
63012;SDS011;62113;45.624;11.700;2023-01-25T07:50:09;16.38;;;10.20;;
63012;SDS011;62113;45.624;11.700;2023-01-25T07:52:36;19.08;;;11.82;;
63012;SDS011;62113;45.624;11.700;2023-01-25T07:55:02;28.48;;;17.00;;
63012;SDS011;62113;45.624;11.700;2023-01-25T07:57:27;16.23;;;11.45;;
63012;SDS011;62113;45.624;11.700;2023-01-25T07:59:53;14.63;;;10.20;;
63012;SDS011;62113;45.624;11.700;2023-01-25T08:02:19;20.40;;;10.50;;
63012;SDS011;62113;45.624;11.700;2023-01-25T08:04:45;15.52;;;9.80;;
63012;SDS011;62113;45.624;11.700;2023-01-25T08:07:11;19.23;;;11.13;;
63012;SDS011;62113;45.624;11.700;2023-01-25T08:09:37;17.92;;;12.48;;
63012;SDS011;62113;45.624;11.700;2023-01-25T08:12:03;23.33;;;12.73;;
63012;SDS011;62113;45.624;11.700;2023-01-25T08:14:30;17.38;;;10.05;;
63012;SDS011;62113;45.624;11.700;2023-01-25T08:16:55;14.13;;;9.18;;
63012;SDS011;62113;45.624;11.700;2023-01-25T08:19:21;10.35;;;8.10;;
63012;SDS011;62113;45.624;11.700;2023-01-25T08:21:48;11.07;;;7.32;;
63012;SDS011;62113;45.624;11.700;2023-01-25T08:24:14;10.90;;;7.80;;
63012;SDS011;62113;45.624;11.700;2023-01-25T08:26:40;11.50;;;7.87;;
63012;SDS011;62113;45.624;11.700;2023-01-25T08:29:08;8.05;;;7.25;;
63012;SDS011;62113;45.624;11.700;2023-01-25T08:31:39;13.82;;;7.55;;
63012;SDS011;62113;45.624;11.700;2023-01-25T08:34:08;9.88;;;7.18;;
63012;SDS011;62113;45.624;11.700;2023-01-25T08:36:34;10.10;;;7.07;;
63012;SDS011;62113;45.624;11.700;2023-01-25T08:39:01;9.83;;;6.90;;
63012;SDS011;62113;45.624;11.700;2023-01-25T08:41:32;10.43;;;7.20;;
63012;SDS011;62113;45.624;11.700;2023-01-25T08:43:58;9.80;;;6.68;;
63012;SDS011;62113;45.624;11.700;2023-01-25T08:46:26;14.53;;;6.10;;
63012;SDS011;62113;45.624;11.700;2023-01-25T08:48:53;6.93;;;6.22;;
63012;SDS011;62113;45.624;11.700;2023-01-25T08:53:45;7.63;;;5.80;;
63012;SDS011;62113;45.624;11.700;2023-01-25T08:56:12;20.17;;;5.73;;
63012;SDS011;62113;45.624;11.700;2023-01-25T08:58:40;7.85;;;6.07;;
63012;SDS011;62113;45.624;11.700;2023-01-25T09:01:09;9.50;;;6.82;;
63012;SDS011;62113;45.624;11.700;2023-01-25T09:03:37;14.43;;;7.47;;
63012;SDS011;62113;45.624;11.700;2023-01-25T09:06:04;11.40;;;6.40;;
63012;SDS011;62113;45.624;11.700;2023-01-25T09:08:32;11.70;;;6.22;;
63012;SDS011;62113;45.624;11.700;2023-01-25T09:11:04;6.47;;;5.43;;
63012;SDS011;62113;45.624;11.700;2023-01-25T09:13:34;7.00;;;5.70;;
63012;SDS011;62113;45.624;11.700;2023-01-25T09:16:04;7.93;;;4.60;;
63012;SDS011;62113;45.624;11.700;2023-01-25T09:18:31;7.93;;;5.43;;
63012;SDS011;62113;45.624;11.700;2023-01-25T09:20:59;9.00;;;5.00;;
63012;SDS011;62113;45.624;11.700;2023-01-25T09:23:29;7.45;;;5.40;;
63012;SDS011;62113;45.624;11.700;2023-01-25T09:25:57;5.95;;;4.72;;
63012;SDS011;62113;45.624;11.700;2023-01-25T09:28:24;4.95;;;4.10;;
63012;SDS011;62113;45.624;11.700;2023-01-25T09:30:54;6.22;;;4.97;;
63012;SDS011;62113;45.624;11.700;2023-01-25T09:33:25;8.90;;;6.13;;
63012;SDS011;62113;45.624;11.700;2023-01-25T09:35:57;13.13;;;7.43;;
63012;SDS011;62113;45.624;11.700;2023-01-25T09:38:23;9.75;;;5.50;;
63012;SDS011;62113;45.624;11.700;2023-01-25T09:46:34;9.27;;;5.43;;
63012;SDS011;62113;45.624;11.700;2023-01-25T09:54:50;7.53;;;5.70;;
63012;SDS011;62113;45.624;11.700;2023-01-25T09:57:18;7.23;;;5.47;;
63012;SDS011;62113;45.624;11.700;2023-01-25T09:59:49;8.32;;;6.00;;
63012;SDS011;62113;45.624;11.700;2023-01-25T10:04:54;6.60;;;4.85;;
63012;SDS011;62113;45.624;11.700;2023-01-25T10:07:29;6.53;;;4.93;;
63012;SDS011;62113;45.624;11.700;2023-01-25T10:10:13;8.25;;;5.05;;
63012;SDS011;62113;45.624;11.700;2023-01-25T10:12:52;5.63;;;5.03;;
63012;SDS011;62113;45.624;11.700;2023-01-25T10:17:46;8.63;;;6.18;;
63012;SDS011;62113;45.624;11.700;2023-01-25T10:20:42;11.15;;;6.60;;
63012;SDS011;62113;45.624;11.700;2023-01-25T10:23:52;7.35;;;5.80;;
63012;SDS011;62113;45.624;11.700;2023-01-25T10:29:11;7.70;;;4.82;;
63012;SDS011;62113;45.624;11.700;2023-01-25T10:31:46;9.93;;;5.70;;
63012;SDS011;62113;45.624;11.700;2023-01-25T10:34:39;6.90;;;5.68;;
63012;SDS011;62113;45.624;11.700;2023-01-25T10:37:21;9.27;;;6.80;;
63012;SDS011;62113;45.624;11.700;2023-01-25T10:39:53;19.48;;;11.98;;
63012;SDS011;62113;45.624;11.700;2023-01-25T10:42:59;12.07;;;8.45;;
63012;SDS011;62113;45.624;11.700;2023-01-25T10:45:30;13.48;;;8.93;;
63012;SDS011;62113;45.624;11.700;2023-01-25T10:47:57;7.70;;;5.47;;
63012;SDS011;62113;45.624;11.700;2023-01-25T10:53:29;11.10;;;7.53;;
63012;SDS011;62113;45.624;11.700;2023-01-25T10:56:04;12.10;;;7.47;;
63012;SDS011;62113;45.624;11.700;2023-01-25T10:58:50;18.70;;;11.68;;
63012;SDS011;62113;45.624;11.700;2023-01-25T11:01:30;11.90;;;6.60;;
63012;SDS011;62113;45.624;11.700;2023-01-25T11:03:57;8.95;;;6.45;;
63012;SDS011;62113;45.624;11.700;2023-01-25T11:06:33;8.07;;;6.03;;
63012;SDS011;62113;45.624;11.700;2023-01-25T11:09:00;7.70;;;5.97;;
63012;SDS011;62113;45.624;11.700;2023-01-25T11:11:56;8.93;;;6.72;;
63012;SDS011;62113;45.624;11.700;2023-01-25T11:14:24;8.20;;;5.82;;
63012;SDS011;62113;45.624;11.700;2023-01-25T11:16:51;13.10;;;7.53;;
63012;SDS011;62113;45.624;11.700;2023-01-25T11:22:24;8.50;;;6.88;;
63012;SDS011;62113;45.624;11.700;2023-01-25T11:24:49;7.60;;;6.35;;
63012;SDS011;62113;45.624;11.700;2023-01-25T11:27:19;11.33;;;8.50;;
63012;SDS011;62113;45.624;11.700;2023-01-25T11:32:31;11.50;;;5.68;;
63012;SDS011;62113;45.624;11.700;2023-01-25T11:34:57;10.10;;;7.35;;
63012;SDS011;62113;45.624;11.700;2023-01-25T11:40:48;7.88;;;5.63;;
63012;SDS011;62113;45.624;11.700;2023-01-25T11:43:34;10.18;;;6.32;;
63012;SDS011;62113;45.624;11.700;2023-01-25T11:51:40;6.70;;;4.45;;
63012;SDS011;62113;45.624;11.700;2023-01-25T12:07:14;6.30;;;4.97;;
63012;SDS011;62113;45.624;11.700;2023-01-25T12:18:35;12.85;;;5.57;;
63012;SDS011;62113;45.624;11.700;2023-01-25T12:26:54;8.52;;;6.07;;
63012;SDS011;62113;45.624;11.700;2023-01-25T12:29:31;8.07;;;4.97;;
63012;SDS011;62113;45.624;11.700;2023-01-25T12:32:11;10.07;;;4.63;;
63012;SDS011;62113;45.624;11.700;2023-01-25T12:34:41;10.68;;;7.35;;
63012;SDS011;62113;45.624;11.700;2023-01-25T12:37:14;11.80;;;6.15;;
63012;SDS011;62113;45.624;11.700;2023-01-25T12:40:02;11.40;;;8.13;;
63012;SDS011;62113;45.624;11.700;2023-01-25T12:42:39;11.63;;;8.50;;
63012;SDS011;62113;45.624;11.700;2023-01-25T12:45:13;6.68;;;5.35;;
63012;SDS011;62113;45.624;11.700;2023-01-25T12:47:53;8.45;;;5.60;;
63012;SDS011;62113;45.624;11.700;2023-01-25T12:50:37;10.35;;;6.28;;
63012;SDS011;62113;45.624;11.700;2023-01-25T12:55:45;7.68;;;5.78;;
63012;SDS011;62113;45.624;11.700;2023-01-25T12:58:18;7.40;;;5.60;;
63012;SDS011;62113;45.624;11.700;2023-01-25T13:01:00;6.28;;;5.40;;
63012;SDS011;62113;45.624;11.700;2023-01-25T13:10:15;11.15;;;5.28;;
63012;SDS011;62113;45.624;11.700;2023-01-25T13:12:52;7.60;;;5.30;;
63012;SDS011;62113;45.624;11.700;2023-01-25T13:15:33;8.38;;;5.38;;
63012;SDS011;62113;45.624;11.700;2023-01-25T13:18:50;10.43;;;5.40;;
63012;SDS011;62113;45.624;11.700;2023-01-25T13:20:52;7.18;;;5.35;;
63012;SDS011;62113;45.624;11.700;2023-01-25T13:32:00;7.30;;;5.15;;
63012;SDS011;62113;45.624;11.700;2023-01-25T13:39:40;9.35;;;6.88;;
63012;SDS011;62113;45.624;11.700;2023-01-25T13:44:34;6.28;;;5.15;;
63012;SDS011;62113;45.624;11.700;2023-01-25T13:47:11;8.45;;;5.55;;
63012;SDS011;62113;45.624;11.700;2023-01-25T13:49:41;10.60;;;5.13;;
63012;SDS011;62113;45.624;11.700;2023-01-25T13:52:15;9.38;;;5.78;;
63012;SDS011;62113;45.624;11.700;2023-01-25T13:54:43;7.90;;;5.30;;
63012;SDS011;62113;45.624;11.700;2023-01-25T13:57:11;8.20;;;5.55;;
63012;SDS011;62113;45.624;11.700;2023-01-25T13:59:56;8.18;;;5.97;;
63012;SDS011;62113;45.624;11.700;2023-01-25T14:02:23;9.15;;;5.60;;
63012;SDS011;62113;45.624;11.700;2023-01-25T14:04:49;7.60;;;5.47;;
63012;SDS011;62113;45.624;11.700;2023-01-25T14:07:21;9.15;;;6.13;;
63012;SDS011;62113;45.624;11.700;2023-01-25T14:09:53;5.38;;;4.88;;
63012;SDS011;62113;45.624;11.700;2023-01-25T14:12:37;7.20;;;5.30;;
63012;SDS011;62113;45.624;11.700;2023-01-25T14:15:37;9.48;;;6.00;;
63012;SDS011;62113;45.624;11.700;2023-01-25T14:18:13;8.65;;;6.03;;
63012;SDS011;62113;45.624;11.700;2023-01-25T14:20:43;11.18;;;5.75;;
63012;SDS011;62113;45.624;11.700;2023-01-25T14:23:21;8.05;;;5.03;;
63012;SDS011;62113;45.624;11.700;2023-01-25T14:25:51;7.07;;;5.57;;
63012;SDS011;62113;45.624;11.700;2023-01-25T14:28:18;11.38;;;5.80;;
63012;SDS011;62113;45.624;11.700;2023-01-25T14:30:48;7.50;;;5.68;;
63012;SDS011;62113;45.624;11.700;2023-01-25T14:35:51;8.73;;;6.13;;
63012;SDS011;62113;45.624;11.700;2023-01-25T14:40:49;7.88;;;5.32;;
63012;SDS011;62113;45.624;11.700;2023-01-25T14:43:18;9.55;;;5.60;;
63012;SDS011;62113;45.624;11.700;2023-01-25T14:45:44;12.40;;;5.85;;
63012;SDS011;62113;45.624;11.700;2023-01-25T14:51:02;13.55;;;7.68;;
63012;SDS011;62113;45.624;11.700;2023-01-25T14:53:30;9.55;;;5.93;;
63012;SDS011;62113;45.624;11.700;2023-01-25T14:55:56;7.05;;;5.38;;
63012;SDS011;62113;45.624;11.700;2023-01-25T14:58:22;9.65;;;5.80;;
63012;SDS011;62113;45.624;11.700;2023-01-25T15:03:19;9.73;;;6.45;;
63012;SDS011;62113;45.624;11.700;2023-01-25T15:08:23;7.23;;;5.90;;
63012;SDS011;62113;45.624;11.700;2023-01-25T15:10:55;13.80;;;5.88;;
63012;SDS011;62113;45.624;11.700;2023-01-25T15:13:42;10.23;;;5.68;;
63012;SDS011;62113;45.624;11.700;2023-01-25T15:16:08;11.93;;;7.00;;
63012;SDS011;62113;45.624;11.700;2023-01-25T15:21:08;10.68;;;5.25;;
63012;SDS011;62113;45.624;11.700;2023-01-25T15:23:36;10.25;;;7.00;;
63012;SDS011;62113;45.624;11.700;2023-01-25T15:26:10;9.77;;;7.22;;
63012;SDS011;62113;45.624;11.700;2023-01-25T15:28:45;9.43;;;6.03;;
63012;SDS011;62113;45.624;11.700;2023-01-25T15:31:20;16.88;;;6.53;;
63012;SDS011;62113;45.624;11.700;2023-01-25T15:33:48;8.65;;;6.70;;
63012;SDS011;62113;45.624;11.700;2023-01-25T15:36:14;12.07;;;7.67;;
63012;SDS011;62113;45.624;11.700;2023-01-25T15:41:06;8.13;;;6.63;;
63012;SDS011;62113;45.624;11.700;2023-01-25T15:43:32;11.23;;;8.25;;
63012;SDS011;62113;45.624;11.700;2023-01-25T15:45:58;12.83;;;8.67;;
63012;SDS011;62113;45.624;11.700;2023-01-25T15:50:54;14.68;;;8.10;;
63012;SDS011;62113;45.624;11.700;2023-01-25T15:53:21;12.73;;;6.65;;
63012;SDS011;62113;45.624;11.700;2023-01-25T15:55:48;13.50;;;6.70;;
63012;SDS011;62113;45.624;11.700;2023-01-25T15:58:37;11.55;;;7.45;;
63012;SDS011;62113;45.624;11.700;2023-01-25T16:01:05;11.48;;;7.20;;
63012;SDS011;62113;45.624;11.700;2023-01-25T16:03:31;13.65;;;8.20;;
63012;SDS011;62113;45.624;11.700;2023-01-25T16:05:59;17.33;;;9.23;;
63012;SDS011;62113;45.624;11.700;2023-01-25T16:08:27;21.92;;;12.75;;
63012;SDS011;62113;45.624;11.700;2023-01-25T16:10:53;21.63;;;11.15;;
63012;SDS011;62113;45.624;11.700;2023-01-25T16:13:19;24.75;;;12.20;;
63012;SDS011;62113;45.624;11.700;2023-01-25T16:15:48;24.42;;;11.25;;
63012;SDS011;62113;45.624;11.700;2023-01-25T16:18:16;15.48;;;9.20;;
63012;SDS011;62113;45.624;11.700;2023-01-25T16:20:41;25.13;;;14.52;;
63012;SDS011;62113;45.624;11.700;2023-01-25T16:23:08;24.17;;;11.53;;
63012;SDS011;62113;45.624;11.700;2023-01-25T16:25:39;18.25;;;10.02;;
63012;SDS011;62113;45.624;11.700;2023-01-25T16:28:15;17.98;;;10.63;;
63012;SDS011;62113;45.624;11.700;2023-01-25T16:30:41;18.88;;;10.35;;
63012;SDS011;62113;45.624;11.700;2023-01-25T16:33:09;20.75;;;11.38;;
63012;SDS011;62113;45.624;11.700;2023-01-25T16:35:35;13.97;;;9.33;;
63012;SDS011;62113;45.624;11.700;2023-01-25T16:38:00;16.55;;;9.73;;
63012;SDS011;62113;45.624;11.700;2023-01-25T16:40:27;13.68;;;9.82;;
63012;SDS011;62113;45.624;11.700;2023-01-25T16:42:56;17.08;;;10.52;;
63012;SDS011;62113;45.624;11.700;2023-01-25T16:45:22;15.65;;;10.75;;
63012;SDS011;62113;45.624;11.700;2023-01-25T16:47:48;28.73;;;12.13;;
63012;SDS011;62113;45.624;11.700;2023-01-25T16:50:15;18.70;;;11.60;;